Bloomfield, New Mexico
Current Conditions -  °F | °C
As of 3:53 PM on Thursday 23 Oct 2014 (Local Time) from KFMN Reporting Station
Clear Clear  
Wind Chill: 72°   Ceiling: Unl
Heat Index: 72°   Visibility: 10mi
Dew Point: 31°   Wind: 3mph
Humidity: 22%   Direction: 280°W
Pressure: 30.21"   Gusts: NA
Location:  36.71°N, 107.98°W
Report Text: KFMN 232153Z 28003KT 10SM CLR 22/M01 A3021 RMK AO2 SLP195 T02221006
Loading
Personal Weather Stations






























Interactive Weather Map
Tropical Storm Tracking
New forecast layout! Learn more

10-Day Weather Forecast

Advertisements
Track Severe Weather on mobile